Terminal Aerodrome Forecast
Issued by NWS

Home | Current Version | Previous Version | Text Only | Print | Product List | Glossary On
Versions: 1 2 3 4 5 6 7 8 9 10 11 12 13
000
FTUS45 KTFX 232320
TAFLWT
TAF
KLWT 232320Z 2400/2424 VRB06KT P6SM SCT070
     FM240400 VRB06KT 3SM BR SCT002 BKN030
     FM241500 VRB06KT P6SM FEW070=

USA.gov is the U.S. government's official web portal to all federal, state and local government web resources and services.